createdAt,value
2023-02-14T00:01:28.494Z,6.20
2023-02-14T00:04:30.533Z,6.43
2023-02-14T00:07:33.026Z,6.63
2023-02-14T00:10:35.553Z,5.95
2023-02-14T00:13:37.799Z,7.95
2023-02-14T00:16:39.834Z,6.18
2023-02-14T00:19:43.408Z,8.05
2023-02-14T00:22:45.427Z,6.97
2023-02-14T00:25:47.387Z,7.18
2023-02-14T00:28:49.416Z,7.10
2023-02-14T00:31:51.999Z,7.88
2023-02-14T00:34:54.057Z,6.28
2023-02-14T00:37:56.136Z,7.40
2023-02-14T00:40:58.525Z,5.93
2023-02-14T00:44:01.049Z,6.80
2023-02-14T00:47:03.152Z,7.35
2023-02-14T00:50:05.539Z,7.40
2023-02-14T00:53:07.656Z,6.75
2023-02-14T00:56:10.504Z,7.75
2023-02-14T00:59:12.998Z,8.52
2023-02-14T01:02:17.075Z,7.32
2023-02-14T01:05:19.560Z,5.88
2023-02-14T01:08:21.689Z,6.78
2023-02-14T01:11:25.403Z,6.38
2023-02-14T01:14:28.335Z,6.65
2023-02-14T01:17:30.499Z,7.05
2023-02-14T01:20:33.258Z,7.30
2023-02-14T01:23:35.226Z,6.15
2023-02-14T01:26:37.371Z,6.20
2023-02-14T01:29:39.385Z,7.05
2023-02-14T01:32:42.529Z,8.20
2023-02-14T01:35:44.521Z,6.35
2023-02-14T01:38:47.313Z,5.95
2023-02-14T01:41:50.215Z,6.97
2023-02-14T01:45:20.000Z,6.65
2023-02-14T01:48:23.363Z,6.97
2023-02-14T01:51:25.484Z,6.53
2023-02-14T01:54:31.739Z,6.65
2023-02-14T01:57:43.829Z,7.22
2023-02-14T02:00:59.446Z,7.03
2023-02-14T02:04:12.900Z,6.93
2023-02-14T02:07:19.565Z,8.00
2023-02-14T02:10:21.998Z,7.55
2023-02-14T02:13:25.460Z,7.97
2023-02-14T02:16:55.764Z,8.02
2023-02-14T02:20:31.656Z,8.25
2023-02-14T02:23:45.373Z,7.95
2023-02-14T02:26:47.436Z,7.70
2023-02-14T02:30:07.904Z,6.60
2023-02-14T02:33:12.768Z,6.85
2023-02-14T02:36:30.081Z,7.00
2023-02-14T02:39:51.151Z,7.57
2023-02-14T02:43:15.490Z,6.97
2023-02-14T02:46:48.346Z,6.68
2023-02-14T02:50:18.011Z,7.55
2023-02-14T02:53:35.102Z,7.82
2023-02-14T02:56:49.932Z,7.50
2023-02-14T02:59:57.529Z,8.05
2023-02-14T03:03:18.128Z,7.22
2023-02-14T03:06:20.186Z,8.10
2023-02-14T03:09:28.011Z,5.53
2023-02-14T03:12:39.086Z,6.10
2023-02-14T03:15:59.048Z,5.85
2023-02-14T03:19:10.830Z,3.80
2023-02-14T03:22:30.224Z,5.10
2023-02-14T03:25:43.019Z,3.67
2023-02-14T03:28:59.014Z,3.88
2023-02-14T03:32:23.016Z,3.03
2023-02-14T03:35:46.705Z,3.05
2023-02-14T03:39:08.178Z,3.10
2023-02-14T03:42:25.526Z,3.08
2023-02-14T03:45:40.832Z,2.50
2023-02-14T03:48:44.515Z,3.72
2023-02-14T03:51:50.808Z,2.42
2023-02-14T03:54:56.674Z,3.40
2023-02-14T03:58:12.692Z,3.08
2023-02-14T04:01:19.224Z,3.45
2023-02-14T04:04:25.458Z,2.80
2023-02-14T04:07:27.570Z,3.05
2023-02-14T04:10:29.659Z,3.47
2023-02-14T04:13:32.186Z,3.35
2023-02-14T04:16:54.180Z,2.70
2023-02-14T04:19:56.949Z,2.40
2023-02-14T04:22:59.188Z,2.65
2023-02-14T04:26:03.799Z,2.72
2023-02-14T04:29:05.803Z,2.35
2023-02-14T04:32:11.038Z,2.47
2023-02-14T04:35:13.205Z,2.00
2023-02-14T04:38:15.455Z,2.28
2023-02-14T04:41:17.551Z,2.10
2023-02-14T04:44:20.521Z,2.47
2023-02-14T04:47:22.544Z,2.17
2023-02-14T04:50:26.066Z,1.88
2023-02-14T04:53:27.993Z,2.30
2023-02-14T04:56:30.129Z,2.38
2023-02-14T04:59:32.099Z,2.13
2023-02-14T05:02:34.128Z,2.53
2023-02-14T05:05:36.175Z,2.45
2023-02-14T05:08:38.243Z,2.70
2023-02-14T05:11:40.249Z,2.80
2023-02-14T05:14:42.296Z,2.53
2023-02-14T05:17:44.425Z,2.33
2023-02-14T05:20:50.062Z,2.60
2023-02-14T05:23:52.025Z,2.38
2023-02-14T05:26:54.071Z,2.00
2023-02-14T05:29:56.134Z,2.55
2023-02-14T05:32:58.343Z,2.42
2023-02-14T05:36:03.602Z,2.63
2023-02-14T05:39:05.727Z,2.17
2023-02-14T05:45:10.905Z,2.13
2023-02-14T05:48:13.487Z,2.45
2023-02-14T05:51:15.580Z,2.40
2023-02-14T05:54:17.614Z,2.03
2023-02-14T05:57:19.724Z,2.65
2023-02-14T06:00:24.043Z,2.60
2023-02-14T06:03:26.389Z,2.70
2023-02-14T06:06:28.448Z,3.08
2023-02-14T06:09:30.574Z,3.13
2023-02-14T06:12:32.998Z,2.88
2023-02-14T06:15:36.335Z,3.22
2023-02-14T06:18:39.224Z,4.40
2023-02-14T06:21:41.207Z,3.65
2023-02-14T06:24:43.268Z,3.90
2023-02-14T06:27:45.942Z,2.90
2023-02-14T06:30:48.845Z,3.55
2023-02-14T06:33:52.510Z,3.42
2023-02-14T06:36:54.621Z,3.47
2023-02-14T06:39:56.694Z,2.83
2023-02-14T06:42:58.715Z,3.38
2023-02-14T06:46:01.227Z,3.30
2023-02-14T06:49:03.274Z,3.83
2023-02-14T06:52:05.665Z,4.05
2023-02-14T06:55:08.047Z,3.70
2023-02-14T06:58:10.046Z,4.63
2023-02-14T07:01:12.085Z,4.00
2023-02-14T07:04:15.217Z,4.78
2023-02-14T07:07:17.212Z,3.75
2023-02-14T07:10:19.987Z,4.63
2023-02-14T07:13:22.214Z,3.58
2023-02-14T07:16:24.500Z,4.38
2023-02-14T07:19:26.557Z,4.93
2023-02-14T07:22:30.311Z,4.90
2023-02-14T07:25:32.623Z,4.78
2023-02-14T07:28:34.686Z,4.80
2023-02-14T07:31:36.932Z,5.20
2023-02-14T07:34:39.174Z,4.82
2023-02-14T07:37:41.296Z,4.90
2023-02-14T07:40:43.369Z,4.60
2023-02-14T07:43:45.297Z,5.63
2023-02-14T07:46:47.347Z,4.10
2023-02-14T07:49:49.366Z,6.10
2023-02-14T07:52:51.422Z,5.70
2023-02-14T07:55:53.797Z,4.82
2023-02-14T07:58:55.828Z,5.35
2023-02-14T08:01:58.245Z,4.93
2023-02-14T08:05:00.403Z,4.07
2023-02-14T08:08:02.606Z,4.68
2023-02-14T08:11:04.666Z,5.13
2023-02-14T08:14:06.773Z,6.20
2023-02-14T08:17:10.323Z,5.20
2023-02-14T08:20:13.458Z,5.72
2023-02-14T08:23:17.915Z,5.45
2023-02-14T08:26:20.294Z,7.20
2023-02-14T08:29:22.327Z,5.03
2023-02-14T08:32:24.444Z,5.43
2023-02-14T08:35:26.563Z,6.85
2023-02-14T08:38:29.215Z,5.25
2023-02-14T08:41:31.757Z,4.68
2023-02-14T08:44:33.736Z,5.45
2023-02-14T08:47:36.837Z,5.40
2023-02-14T08:50:39.854Z,5.05
2023-02-14T08:53:42.889Z,5.88
2023-02-14T08:56:45.063Z,5.30
2023-02-14T08:59:47.402Z,4.97
2023-02-14T09:02:53.196Z,5.32
2023-02-14T09:06:02.816Z,5.43
2023-02-14T09:09:06.470Z,5.82
2023-02-14T09:12:10.319Z,5.60
2023-02-14T09:15:12.787Z,6.43
2023-02-14T09:18:16.310Z,5.68
2023-02-14T09:21:21.506Z,5.05
2023-02-14T09:24:23.556Z,5.30
2023-02-14T09:27:25.642Z,5.07
2023-02-14T09:30:27.871Z,4.78
2023-02-14T09:33:30.047Z,5.22
2023-02-14T09:36:51.139Z,5.60
2023-02-14T09:39:53.274Z,6.10
2023-02-14T09:43:01.831Z,6.32
2023-02-14T09:46:07.641Z,6.40
2023-02-14T09:49:15.512Z,6.63
2023-02-14T09:52:20.023Z,6.28
2023-02-14T09:55:22.597Z,6.63
2023-02-14T09:58:40.025Z,6.15
2023-02-14T10:02:32.876Z,7.85
2023-02-14T10:05:43.990Z,5.15
2023-02-14T10:09:13.619Z,7.53
2023-02-14T10:15:32.177Z,6.47
2023-02-14T10:18:56.159Z,6.70
2023-02-14T10:22:03.303Z,6.97
2023-02-14T10:25:29.733Z,7.10
2023-02-14T10:28:43.090Z,7.35
2023-02-14T10:31:56.015Z,8.10
2023-02-14T10:35:01.129Z,6.50
2023-02-14T10:38:19.960Z,7.75
2023-02-14T10:42:06.821Z,8.43
2023-02-14T10:45:29.288Z,8.32
2023-02-14T10:48:59.809Z,8.70
2023-02-14T10:52:15.068Z,8.13
2023-02-14T10:55:32.975Z,6.82
2023-02-14T10:58:38.358Z,7.10
2023-02-14T11:01:40.887Z,8.63
2023-02-14T11:04:44.457Z,7.95
2023-02-14T11:07:46.441Z,7.85
2023-02-14T11:10:48.847Z,7.47
2023-02-14T11:13:50.973Z,9.77
2023-02-14T11:16:54.615Z,8.45
2023-02-14T11:20:02.113Z,9.25
2023-02-14T11:23:19.172Z,6.85
2023-02-14T11:26:25.768Z,8.75
2023-02-14T11:29:31.021Z,7.72
2023-02-14T11:32:37.664Z,9.52
2023-02-14T11:35:39.814Z,6.53
2023-02-14T11:38:44.438Z,10.02
2023-02-14T11:41:56.392Z,7.47
2023-02-14T11:44:59.737Z,6.85
2023-02-14T11:48:36.651Z,8.18
2023-02-14T11:51:45.589Z,7.95
2023-02-14T11:54:49.661Z,8.23
2023-02-14T11:57:52.070Z,6.82
2023-02-14T12:00:54.496Z,7.53
2023-02-14T12:04:01.675Z,6.97
2023-02-14T12:07:16.688Z,9.18
2023-02-14T12:10:25.053Z,6.63
2023-02-14T12:13:27.094Z,8.15
2023-02-14T12:16:38.857Z,6.78
2023-02-14T12:19:54.755Z,7.07
2023-02-14T12:23:03.890Z,8.13
2023-02-14T12:26:43.324Z,8.10
2023-02-14T12:29:48.761Z,8.07
2023-02-14T12:32:56.521Z,5.80
2023-02-14T12:36:09.215Z,7.47
2023-02-14T12:39:20.994Z,7.60
2023-02-14T12:42:35.201Z,8.55
2023-02-14T12:45:55.767Z,7.95
2023-02-14T12:49:00.588Z,7.10
2023-02-14T12:52:20.647Z,7.70
2023-02-14T12:55:36.908Z,7.82
2023-02-14T12:58:59.240Z,9.32
2023-02-14T13:02:16.511Z,8.63
2023-02-14T13:05:53.598Z,7.72
2023-02-14T13:09:14.474Z,6.25
2023-02-14T13:12:35.099Z,7.03
2023-02-14T13:15:55.053Z,7.90
2023-02-14T13:19:05.725Z,7.72
2023-02-14T13:22:13.674Z,7.65
2023-02-14T13:25:33.646Z,6.55
2023-02-14T13:28:39.384Z,5.80
2023-02-14T13:31:42.297Z,7.18
2023-02-14T13:34:47.760Z,6.63
2023-02-14T13:37:56.226Z,6.43
2023-02-14T13:41:01.117Z,6.00
2023-02-14T13:44:05.558Z,6.32
2023-02-14T13:47:16.186Z,6.60
2023-02-14T13:50:21.747Z,5.32
2023-02-14T13:53:38.056Z,7.63
2023-02-14T13:56:40.472Z,4.63
2023-02-14T13:59:43.219Z,6.00
2023-02-14T14:03:05.543Z,7.40
2023-02-14T14:06:12.977Z,5.47
2023-02-14T14:09:43.349Z,7.60
2023-02-14T14:12:46.105Z,6.00
2023-02-14T14:16:21.778Z,6.70
2023-02-14T14:19:26.909Z,6.20
2023-02-14T14:22:32.016Z,7.07
2023-02-14T14:25:41.494Z,8.27
2023-02-14T14:28:47.864Z,7.55
2023-02-14T14:31:55.783Z,6.65
2023-02-14T14:35:08.478Z,6.88
2023-02-14T14:38:14.465Z,7.07
2023-02-14T14:41:17.186Z,6.90
2023-02-14T14:44:19.364Z,7.55
2023-02-14T14:47:26.978Z,6.82
2023-02-14T14:50:33.070Z,7.50
2023-02-14T14:53:44.657Z,6.60
2023-02-14T14:57:01.675Z,6.18
2023-02-14T15:00:28.541Z,6.05
2023-02-14T15:03:31.265Z,6.90
2023-02-14T15:06:33.261Z,6.53
2023-02-14T15:09:36.805Z,7.05
2023-02-14T15:12:57.640Z,6.78
2023-02-14T15:16:01.847Z,7.88
2023-02-14T15:19:19.056Z,5.88
2023-02-14T15:22:23.988Z,7.03
2023-02-14T15:25:27.761Z,7.55
2023-02-14T15:28:32.247Z,7.80
2023-02-14T15:31:40.826Z,7.85
2023-02-14T15:34:43.013Z,7.20
2023-02-14T15:37:46.940Z,6.93
2023-02-14T15:40:49.371Z,7.53
2023-02-14T15:43:54.031Z,7.75
2023-02-14T15:47:05.759Z,7.38
2023-02-14T15:50:31.422Z,7.55
2023-02-14T15:53:58.484Z,7.00
2023-02-14T15:57:01.457Z,7.20
2023-02-14T16:00:17.081Z,7.18
2023-02-14T16:03:22.720Z,8.60
2023-02-14T16:06:45.051Z,8.23
2023-02-14T16:09:48.171Z,7.68
2023-02-14T16:13:20.542Z,5.43
2023-02-14T16:16:22.708Z,8.27
2023-02-14T16:19:37.268Z,5.78
2023-02-14T16:22:39.290Z,8.20
2023-02-14T16:25:42.001Z,7.90
2023-02-14T16:28:44.032Z,8.77
2023-02-14T16:32:14.117Z,6.90
2023-02-14T16:35:21.259Z,8.52
2023-02-14T16:38:23.693Z,7.93
2023-02-14T16:41:27.956Z,8.68
2023-02-14T16:44:29.988Z,8.30
2023-02-14T16:47:32.059Z,8.15
2023-02-14T16:50:36.555Z,8.45
2023-02-14T16:53:41.151Z,7.90
2023-02-14T16:56:53.633Z,4.43
2023-02-14T16:59:56.579Z,7.10
2023-02-14T17:03:08.671Z,7.45
2023-02-14T17:06:15.859Z,5.97
2023-02-14T17:09:24.384Z,7.03
2023-02-14T17:12:35.338Z,6.32
2023-02-14T17:15:39.032Z,8.65
2023-02-14T17:18:43.548Z,8.55
2023-02-14T17:21:45.639Z,7.80
2023-02-14T17:24:47.840Z,6.95
2023-02-14T17:27:49.860Z,8.55
2023-02-14T17:30:51.812Z,8.07
2023-02-14T17:33:53.958Z,8.25
2023-02-14T17:36:55.964Z,7.60
2023-02-14T17:40:01.280Z,7.45
2023-02-14T17:43:03.457Z,7.38
2023-02-14T17:46:05.834Z,8.75
2023-02-14T17:49:09.729Z,7.82
2023-02-14T17:52:11.764Z,7.88
2023-02-14T17:55:15.917Z,7.10
2023-02-14T17:58:17.935Z,7.90
2023-02-14T18:01:22.639Z,8.23
2023-02-14T18:04:25.682Z,8.15
2023-02-14T18:07:27.709Z,7.47
2023-02-14T18:10:29.800Z,7.00
2023-02-14T18:13:32.231Z,7.68
2023-02-14T18:16:37.053Z,8.35
2023-02-14T18:19:39.098Z,7.47
2023-02-14T18:22:41.112Z,7.80
2023-02-14T18:25:49.983Z,8.82
2023-02-14T18:28:52.121Z,7.15
2023-02-14T18:31:54.222Z,9.15
2023-02-14T18:34:56.333Z,9.52
2023-02-14T18:37:58.544Z,8.50
2023-02-14T18:41:05.364Z,8.02
2023-02-14T18:44:10.623Z,9.68
2023-02-14T18:47:12.526Z,8.00
2023-02-14T18:50:14.577Z,8.88
2023-02-14T18:53:17.890Z,9.48
2023-02-14T18:56:24.298Z,8.65
2023-02-14T18:59:26.300Z,7.28
2023-02-14T19:02:28.428Z,8.43
2023-02-14T19:05:30.528Z,8.57
2023-02-14T19:08:38.457Z,7.32
2023-02-14T19:11:40.909Z,8.23
2023-02-14T19:14:43.122Z,8.55
2023-02-14T19:17:45.630Z,7.88
2023-02-14T19:20:48.402Z,6.85
2023-02-14T19:23:53.035Z,8.68
2023-02-14T19:26:56.953Z,6.47
2023-02-14T19:29:59.096Z,6.05
2023-02-14T19:33:01.291Z,8.48
2023-02-14T19:36:05.723Z,6.60
2023-02-14T19:39:10.202Z,6.38
2023-02-14T19:42:14.084Z,6.10
2023-02-14T19:45:19.053Z,7.28
2023-02-14T19:48:21.028Z,6.65
2023-02-14T19:51:26.617Z,9.30
2023-02-14T19:54:30.156Z,7.68
2023-02-14T19:57:32.162Z,9.85
2023-02-14T20:00:37.132Z,6.32
2023-02-14T20:03:39.282Z,7.35
2023-02-14T20:06:43.952Z,6.50
2023-02-14T20:09:46.114Z,6.93
2023-02-14T20:12:48.397Z,7.25
2023-02-14T20:15:51.708Z,9.52
2023-02-14T20:18:54.450Z,7.60
2023-02-14T20:21:56.625Z,7.32
2023-02-14T20:25:00.743Z,8.18
2023-02-14T20:28:02.777Z,9.10
2023-02-14T20:31:13.260Z,8.52
2023-02-14T20:34:17.200Z,8.57
2023-02-14T20:37:22.667Z,7.40
2023-02-14T20:40:28.091Z,8.73
2023-02-14T20:43:31.487Z,7.75
2023-02-14T20:46:34.799Z,7.22
2023-02-14T20:49:39.288Z,6.32
2023-02-14T20:52:41.385Z,7.35
2023-02-14T20:55:47.137Z,6.55
2023-02-14T20:58:49.963Z,7.93
2023-02-14T21:01:52.074Z,7.85
2023-02-14T21:04:54.174Z,8.18
2023-02-14T21:07:56.487Z,8.70
2023-02-14T21:11:00.515Z,9.52
2023-02-14T21:14:03.136Z,7.60
2023-02-14T21:17:05.144Z,9.68
2023-02-14T21:20:07.883Z,8.25
2023-02-14T21:23:10.515Z,7.57
2023-02-14T21:26:12.568Z,7.97
2023-02-14T21:29:14.760Z,6.20
2023-02-14T21:32:16.971Z,6.65
2023-02-14T21:35:19.175Z,7.22
2023-02-14T21:38:21.699Z,8.77
2023-02-14T21:41:26.736Z,7.15
2023-02-14T21:44:47.580Z,7.88
2023-02-14T21:48:11.108Z,9.18
2023-02-14T21:51:13.940Z,7.43
2023-02-14T21:54:16.640Z,9.32
2023-02-14T21:57:21.040Z,7.00
2023-02-14T22:00:23.132Z,6.97
2023-02-14T22:03:25.315Z,7.10
2023-02-14T22:06:31.377Z,6.82
2023-02-14T22:09:34.233Z,5.88
2023-02-14T22:12:36.404Z,7.25
2023-02-14T22:15:41.354Z,5.90
2023-02-14T22:18:43.652Z,6.70
2023-02-14T22:25:12.118Z,8.90
2023-02-14T22:28:14.174Z,7.95
2023-02-14T22:31:18.659Z,7.00
2023-02-14T22:34:20.837Z,7.30
2023-02-14T22:37:22.964Z,7.68
2023-02-14T22:40:25.129Z,7.72
2023-02-14T22:43:27.451Z,9.25
2023-02-14T22:46:29.491Z,7.25
2023-02-14T22:49:31.546Z,6.53
2023-02-14T22:52:34.994Z,6.95
2023-02-14T22:55:37.030Z,8.10
2023-02-14T22:58:39.480Z,6.32
2023-02-14T23:01:42.829Z,8.10
2023-02-14T23:04:44.904Z,7.22
2023-02-14T23:07:47.123Z,7.10
2023-02-14T23:10:49.437Z,6.65
2023-02-14T23:14:10.077Z,7.72
2023-02-14T23:17:18.812Z,7.47
2023-02-14T23:20:39.850Z,7.53
2023-02-14T23:23:41.935Z,7.05
2023-02-14T23:26:44.244Z,7.25
2023-02-14T23:29:46.458Z,7.30
2023-02-14T23:32:48.462Z,6.55
2023-02-14T23:35:50.440Z,7.13
2023-02-14T23:38:52.550Z,7.75
2023-02-14T23:41:55.384Z,7.10
2023-02-14T23:45:17.421Z,7.97
2023-02-14T23:48:19.475Z,6.97
2023-02-14T23:51:21.471Z,5.95
2023-02-14T23:54:24.207Z,8.35
2023-02-14T23:57:26.290Z,6.60
